Fairdale, Kentucky
Current Conditions -  °F | °C
As of 11:56 AM on Friday 24 Oct 2014 (Local Time) from KSDF Reporting Station
Broken Clouds Broken Clouds  
Wind Chill: 57°   Ceiling: 13000
Heat Index: 57°   Visibility: 7mi
Dew Point: 46°   Wind: 7mph
Humidity: 67%   Direction: 210°SSW
Pressure: 30.14"   Gusts: NA
Location:  38.1°N, 85.76°W
Report Text: KSDF 241556Z 21006KT 7SM FEW035 BKN130 BKN150 14/08 A3014 RMK AO2 SLP205 T01390078
Loading
Personal Weather Stations






























Interactive Weather Map
Tropical Storm Tracking
New forecast layout! Learn more

10-Day Weather Forecast

Advertisements
Track Severe Weather on mobile